Airfield :
LOGIN :

Register | Disclaimer

   EN    FR    IT 

 










Legend :    VFR   Marginal VFR   IFR   Intensive IFR   Very Intensive IFR
Visi :
Ceiling :
>= 8 km
>= 3000ft
5 to 8 km
1000 to 3000 ft
1500m to 5 km
500 to 1000 ft
800 to 1500m
200 to 500 ft
< 800m
< 200 ft
Symbols :   Thunderstorms  Fog  Heavy snow  Heavy precipitations  Wind > 20 kt
SIGMETs :     Misc.  Thunderstorms  Icing  Turbulence  Mountain Waves  Volcanic Ashes






- Airport Elevation : 776 ft
- IATA code : RMS


ETAR - Ramstein Air Base

CURRENT METAR :
  • 241202Z AUTO 25011KT 9999 FEW015 SCT025 06/03 A2961 RMK AO2 RAE02 SLP035 $

EXPIRED METARs :
  • 241139Z AUTO 23012G15KT 9999 -RA FEW029 FEW037 07/01 A2960 RMK AO2 DZE1055RAB39 SLP031 $
  • 241056Z AUTO 21009KT 9999 FEW013 SCT027 06/02 A2961 RMK AO2 DZE55 SLP035 $
  • 240955Z AUTO 24010G15KT 9999 FEW023 BKN036 06/01 A2959 RMK AO2 SLP028 T00580009 $
  • 240855Z AUTO 23008G16KT 9999 BKN032 05/02 A2957 RMK AO2 SLP022 60002 T00520015 52031 $
  • 240840Z AUTO 22009KT 9999 SCT026 OVC032 05/01 A2956 RMK AO2 SLP019 $
  • 240805Z AUTO 24008G15KT 9999 SCT016 SCT021 OVC028 04/01 A2955 RMK AO2 CIG 016V028 CIG 025 RWY08 SLP015 $
  • 240755Z AUTO 24011KT 9999 FEW007 BKN016 OVC021 04/02 A2955 RMK AO2 RAE43 BKN V OVC SLP015 P0002 T00410018 $
  • 240743Z AUTO 23009KT 9999 SCT007 OVC016 04/02 A2954 RMK AO2 RAE43 CIG 014 RWY08 SLP012 $

TAF TAF ETAR
Valid from the 24 at 10:00 until the 25 at 16:00 UTC


241000Z 2410/2516 22015G25KT 9999 BKN030 520003 QNH2958INS
BECMG 2416/2417 20012KT 9999 SCT030 QNH2963INS
BECMG 2505/2506 21010G20KT 9000 -RA OVC015 620206 510003 QNH2964INS
BECMG 2509/2510 20010G20KT 9999 NSW BKN030 510005 QNH2953INS TX07/2412Z TN03/2503Z



MET'MAP, your aeronautical weather chart ! - Copyright ORBIFLY December 2007 - Disclaimer

ORBIFLY MET'MAP TEAM :

Programming & Development : Alexandra Zaïnal
Original concept : Baudouin d'Aumeries
Technical & hardware support : Manuel Goepfert
Assistance : Marc-Olivier Méhu




SOURCES & CREDITS :

   NOAA